Time;durP1;ratioP1;P1;durP2;ratioP2;P2;SDS_P1;SDS_P2;PMS_P1;PMS_P2;Temp;Humidity;BMP_temperature;BMP_pressure;BME280_temperature;BME280_humidity;BME280_pressure;Samples;Min_cycle;Max_cycle;Signal;HPM_P1;HPM_P2
2022/12/29 00:01:12;;;;;;;1.93;1.50;;;8.60;99.90;;;-141.84;63.95;19102.56;5072444;28;20235;-61
2022/12/29 00:03:40;;;;;;;1.73;1.40;;;8.60;99.90;;;-141.84;63.35;19133.06;5070625;28;20564;-63
2022/12/29 00:06:08;;;;;;;1.70;1.50;;;8.60;99.90;;;-141.84;63.84;19135.09;5071952;28;20311;-62
2022/12/29 00:08:42;;;;;;;1.80;1.60;;;8.60;99.90;;;-141.84;63.80;19135.09;5072856;28;20894;-61
2022/12/29 00:11:13;;;;;;;2.00;1.60;;;8.60;99.90;;;-141.84;63.00;19139.16;5073534;28;20228;-61
2022/12/29 00:16:30;;;;;;;2.43;1.53;;;8.60;99.90;;;-141.84;63.32;19139.16;5073303;28;20610;-56
2022/12/29 00:18:58;;;;;;;3.07;1.60;;;8.60;99.90;;;-141.84;63.37;19090.38;5073263;28;20189;-56
2022/12/29 00:35:39;;;;;;;1.50;1.40;;;8.90;99.90;;;-141.84;62.04;19151.34;5073046;28;20239;-54
2022/12/29 00:46:28;;;;;;;1.73;1.60;;;8.90;99.90;;;-141.84;62.21;19175.72;5072718;28;20240;-55
2022/12/29 00:51:50;;;;;;;1.47;1.37;;;9.00;99.90;;;-141.84;62.04;19179.78;5056823;28;20229;-54
2022/12/29 00:54:19;;;;;;;1.30;1.20;;;9.00;99.90;;;-141.84;61.42;19124.94;5073349;28;20196;-56
2022/12/29 00:56:48;;;;;;;1.50;1.30;;;9.10;99.90;;;-141.84;61.93;19222.47;5072764;28;20898;-56
2022/12/29 00:59:18;;;;;;;1.70;1.60;;;9.10;99.90;;;-141.84;62.37;19177.75;5072397;28;20224;-57
2022/12/29 01:01:47;;;;;;;1.93;1.40;;;9.10;99.90;;;-141.84;62.11;19196.06;5072616;28;20232;-57
2022/12/29 01:04:17;;;;;;;1.70;1.40;;;9.10;99.90;;;-141.84;62.29;19185.88;5072847;28;20307;-56
2022/12/29 01:06:46;;;;;;;1.93;1.30;;;9.10;99.90;;;-141.84;61.85;19189.97;5073127;28;20653;-61
2022/12/29 01:12:01;;;;;;;2.40;1.50;;;9.30;99.90;;;-141.84;61.98;19204.19;5072342;28;20643;-58
2022/12/29 01:14:29;;;;;;;1.97;1.40;;;9.30;99.90;;;-141.84;62.02;19218.41;5072337;28;20272;-56
2022/12/29 01:16:58;;;;;;;1.50;1.40;;;9.30;99.90;;;-141.84;62.06;19194.03;5072514;28;20221;-52
2022/12/29 01:19:28;;;;;;;1.57;1.40;;;9.30;99.90;;;-141.84;62.53;19204.19;5072649;28;20227;-55
2022/12/29 01:21:56;;;;;;;2.67;1.40;;;9.30;99.90;;;-141.84;62.01;19196.06;5072503;28;20209;-63
2022/12/29 01:24:25;;;;;;;2.00;1.20;;;9.30;99.90;;;-141.84;62.33;19204.19;5072777;28;20205;-62
2022/12/29 01:26:54;;;;;;;3.80;1.60;;;9.30;99.90;;;-141.84;62.06;19228.56;5072397;28;20235;-63
2022/12/29 01:29:23;;;;;;;1.60;1.50;;;9.30;99.90;;;-141.84;62.56;19224.50;5072113;28;20235;-64
2022/12/29 01:31:52;;;;;;;2.17;1.30;;;9.30;99.90;;;-141.84;62.35;19244.81;5072398;28;20228;-62
2022/12/29 01:34:20;;;;;;;2.83;1.40;;;9.30;99.90;;;-141.84;62.41;19208.25;5066534;28;20720;-61
2022/12/29 01:36:49;;;;;;;1.93;1.40;;;9.30;99.90;;;-141.84;62.16;19206.22;5065954;28;20209;-63
2022/12/29 01:39:17;;;;;;;1.67;1.33;;;9.40;99.90;;;-141.84;62.77;19189.97;5072242;28;20883;-62
2022/12/29 01:41:45;;;;;;;1.60;1.50;;;9.30;99.90;;;-141.84;62.42;19244.81;5071880;28;20229;-64
2022/12/29 01:44:54;;;;;;;2.03;1.30;;;9.40;99.90;;;-141.84;63.07;19216.38;5071815;28;20236;-62
2022/12/29 01:47:31;;;;;;;1.63;1.50;;;9.40;99.90;;;-141.84;63.12;19208.25;5072003;28;20232;-64
2022/12/29 01:50:07;;;;;;;2.63;1.50;;;9.30;99.90;;;-141.84;63.64;19200.13;5072019;28;20252;-61
2022/12/29 01:52:44;;;;;;;3.20;1.43;;;9.30;99.90;;;-141.84;63.72;19210.28;5071093;28;20319;-63
2022/12/29 01:55:13;;;;;;;2.33;1.33;;;9.30;99.90;;;-141.84;64.70;19185.88;5071913;28;20255;-62
2022/12/29 01:57:48;;;;;;;3.87;1.47;;;9.20;99.90;;;-141.84;64.32;19220.44;5071859;28;20208;-62
2022/12/29 02:00:17;;;;;;;1.40;1.30;;;9.30;99.90;;;-141.84;64.07;19183.84;5071932;28;20230;-62
2022/12/29 02:02:50;;;;;;;1.40;1.20;;;9.40;99.90;;;-141.84;64.70;19220.44;5071421;28;20229;-62
2022/12/29 02:05:28;;;;;;;2.63;1.63;;;9.30;99.90;;;-141.84;64.76;19192.00;5071489;28;20312;-61
2022/12/29 02:07:58;;;;;;;2.30;1.67;;;9.30;99.90;;;-141.84;65.23;19151.34;5071278;28;20243;-62
2022/12/29 02:10:30;;;;;;;2.00;1.50;;;9.30;99.90;;;-141.84;64.88;19163.53;5071375;28;20243;-62
2022/12/29 02:12:59;;;;;;;1.67;1.27;;;9.30;99.90;;;-141.84;64.62;19220.44;5071128;28;20188;-64
2022/12/29 02:15:41;;;;;;;2.30;1.67;;;9.30;99.90;;;-141.84;64.93;19210.28;5071795;28;20769;-61
2022/12/29 02:18:28;;;;;;;2.27;1.70;;;9.30;99.90;;;-141.84;65.61;19167.59;5071170;28;20232;-62
2022/12/29 02:21:42;;;;;;;1.53;1.40;;;9.30;99.90;;;-141.84;64.30;19216.38;5071338;28;20231;-63
2022/12/29 02:25:11;;;;;;;2.10;1.70;;;9.40;99.90;;;-141.84;64.68;19204.19;5070868;28;20588;-63
2022/12/29 02:28:09;;;;;;;1.93;1.43;;;9.50;99.90;;;-141.84;64.71;19206.22;5068455;28;20216;-62
2022/12/29 02:31:11;;;;;;;1.50;1.40;;;9.50;99.90;;;-141.84;65.00;19196.06;5071347;28;20220;-63
2022/12/29 02:34:00;;;;;;;1.57;1.30;;;9.50;99.90;;;-141.84;65.00;19212.31;5059943;28;20219;-63
2022/12/29 02:36:43;;;;;;;2.03;1.67;;;9.50;99.90;;;-141.84;65.09;19187.91;5061960;28;20232;-62
2022/12/29 02:39:32;;;;;;;2.63;1.50;;;9.50;99.90;;;-141.84;64.29;19230.59;5071095;28;20209;-63
2022/12/29 02:42:14;;;;;;;2.37;1.30;;;9.60;99.90;;;-141.84;63.90;19242.78;5050772;28;20225;-62
2022/12/29 02:44:56;;;;;;;1.93;1.70;;;9.70;99.90;;;-141.84;64.53;19232.63;5050509;28;20787;-62
2022/12/29 02:47:36;;;;;;;4.13;2.13;;;9.70;99.90;;;-141.84;64.60;19212.31;5050872;28;20229;-63
2022/12/29 02:50:14;;;;;;;1.80;1.50;;;9.70;99.90;;;-141.84;64.01;19220.44;5050861;28;20221;-61
2022/12/29 02:52:51;;;;;;;1.97;1.60;;;9.80;99.90;;;-141.84;64.12;19222.47;5056718;28;20224;-64
2022/12/29 02:55:19;;;;;;;2.03;1.60;;;9.80;99.90;;;-141.84;64.56;19198.09;5070470;28;20239;-63
2022/12/29 02:57:47;;;;;;;1.50;1.40;;;9.70;99.90;;;-141.84;65.02;19224.50;5034921;28;20273;-62
2022/12/29 03:00:18;;;;;;;1.80;1.40;;;9.70;99.90;;;-141.84;64.98;19202.16;5071276;28;20205;-63
2022/12/29 03:03:23;;;;;;;2.13;1.63;;;9.70;99.90;;;-141.84;66.01;19159.47;5070649;28;20604;-61
2022/12/29 03:06:16;;;;;;;2.07;1.63;;;9.50;99.90;;;-141.84;65.48;19198.09;5070219;28;20234;-63
2022/12/29 03:08:59;;;;;;;1.90;1.50;;;9.50;99.90;;;-141.84;65.43;19212.31;5070412;28;20674;-63
2022/12/29 03:17:27;;;;;;;4.70;1.80;;;9.60;99.90;;;-141.84;65.40;19208.25;5070328;28;20609;-62
2022/12/29 03:20:07;;;;;;;1.30;1.20;;;9.60;99.90;;;-141.84;65.82;19210.28;5070316;28;20748;-63
2022/12/29 03:22:42;;;;;;;2.00;1.40;;;9.60;99.90;;;-141.84;65.68;19185.88;5070284;28;20239;-61
2022/12/29 03:25:19;;;;;;;1.60;1.50;;;9.70;99.90;;;-141.84;65.24;19210.28;5070344;28;20282;-62
2022/12/29 03:27:53;;;;;;;1.83;1.27;;;9.70;99.90;;;-141.84;65.30;19214.34;5070615;28;20185;-62
2022/12/29 03:30:22;;;;;;;2.20;1.47;;;9.70;99.90;;;-141.84;64.97;19216.38;5070660;28;20180;-62
2022/12/29 03:32:57;;;;;;;1.87;1.40;;;9.80;99.90;;;-141.84;64.48;19232.63;5070279;28;20215;-63
2022/12/29 03:35:32;;;;;;;2.23;1.50;;;9.80;99.90;;;-141.84;64.64;19212.31;5069081;28;20224;-63
2022/12/29 03:38:11;;;;;;;1.63;1.47;;;9.90;99.90;;;-141.84;64.67;19228.56;5069684;28;20231;-62
2022/12/29 03:40:44;;;;;;;2.20;1.30;;;9.90;99.90;;;-141.84;64.96;19226.53;5070159;28;20343;-62
2022/12/29 03:43:14;;;;;;;2.93;1.40;;;9.90;99.90;;;-141.84;64.40;19198.09;5070452;28;20239;-62
2022/12/29 03:45:42;;;;;;;1.60;1.50;;;9.90;99.90;;;-141.84;64.04;19263.09;5070788;28;20200;-63
2022/12/29 03:48:10;;;;;;;1.83;1.57;;;10.00;99.90;;;-141.84;64.05;19257.00;5070143;28;20259;-62
2022/12/29 03:50:40;;;;;;;2.47;1.37;;;10.10;99.90;;;-141.84;64.52;19236.69;5069964;28;20233;-62
2022/12/29 03:53:08;;;;;;;1.67;1.50;;;10.00;99.90;;;-141.84;64.21;19236.69;5070167;28;20237;-63
2022/12/29 03:55:36;;;;;;;2.10;1.90;;;10.00;99.90;;;-141.84;63.85;19242.78;5070242;28;20225;-61
2022/12/29 03:58:05;;;;;;;2.00;1.60;;;10.00;99.90;;;-141.84;64.21;19269.22;5069882;28;20204;-62
2022/12/29 04:00:33;;;;;;;1.77;1.50;;;10.00;99.90;;;-141.84;64.59;19232.63;5070414;28;20201;-62
2022/12/29 04:03:01;;;;;;;2.30;1.70;;;10.00;99.90;;;-141.84;65.05;19214.34;5070085;28;20225;-63
2022/12/29 04:05:30;;;;;;;2.60;1.70;;;9.90;99.90;;;-141.84;64.97;19224.50;5069820;28;20232;-62
2022/12/29 04:08:01;;;;;;;2.60;1.53;;;9.90;99.90;;;-141.84;64.26;19242.78;5070135;28;20282;-63
2022/12/29 04:10:29;;;;;;;3.17;1.57;;;9.90;99.90;;;-141.84;64.14;19265.13;5069944;28;20231;-64
2022/12/29 04:12:57;;;;;;;1.83;1.30;;;10.00;99.90;;;-141.84;63.68;19277.34;5070197;28;20197;-62
2022/12/29 04:15:26;;;;;;;1.60;1.50;;;10.10;99.90;;;-141.84;64.09;19244.81;5071836;28;20207;-63
2022/12/29 04:17:54;;;;;;;1.40;1.30;;;10.10;99.90;;;-141.84;64.33;19252.94;5073757;28;20735;-63
2022/12/29 04:23:09;;;;;;;3.50;1.70;;;10.00;99.90;;;-141.84;64.24;19261.06;5073760;28;20235;-63
2022/12/29 04:25:37;;;;;;;2.10;1.80;;;10.00;99.90;;;-141.84;64.88;19242.78;5073835;28;20220;-62
2022/12/29 04:28:07;;;;;;;2.60;1.87;;;9.90;99.90;;;-141.84;64.89;19234.66;5073567;28;20227;-63
2022/12/29 04:30:35;;;;;;;1.60;1.50;;;9.90;99.90;;;-141.84;65.74;19214.34;5074350;28;20286;-63
2022/12/29 04:33:04;;;;;;;1.80;1.70;;;9.90;99.90;;;-141.84;66.38;19204.19;5073415;28;20735;-63
2022/12/29 04:35:32;;;;;;;1.60;1.40;;;9.80;99.90;;;-141.84;66.23;19202.16;5072903;28;20228;-62
2022/12/29 04:38:01;;;;;;;1.47;1.30;;;9.70;99.90;;;-141.84;65.78;19240.75;5073314;28;20224;-62
2022/12/29 04:40:30;;;;;;;1.83;1.37;;;9.80;99.90;;;-141.84;65.36;19240.75;5073371;28;20232;-62
2022/12/29 04:42:58;;;;;;;2.00;1.60;;;9.80;99.90;;;-141.84;66.07;19198.09;5073402;28;20217;-62
2022/12/29 04:45:26;;;;;;;1.93;1.40;;;9.80;99.90;;;-141.84;66.01;19222.47;5073743;28;20208;-63
2022/12/29 04:47:55;;;;;;;2.00;1.47;;;9.90;99.90;;;-141.84;66.05;19228.56;5073030;28;20227;-63
2022/12/29 04:50:23;;;;;;;2.17;1.10;;;9.90;99.90;;;-141.84;65.63;19252.94;5072920;28;20224;-63
2022/12/29 04:52:51;;;;;;;1.50;1.27;;;10.00;99.90;;;-141.84;66.21;19222.47;5072908;28;20221;-62
2022/12/29 04:55:19;;;;;;;1.50;1.30;;;10.00;99.90;;;-141.84;66.55;19189.97;5073142;28;20240;-62
2022/12/29 04:57:49;;;;;;;1.50;1.17;;;9.90;99.90;;;-141.84;65.91;19250.91;5073114;28;20205;-62
2022/12/29 05:00:17;;;;;;;2.53;1.20;;;10.00;99.90;;;-141.84;66.34;19228.56;5073802;28;20200;-61
2022/12/29 05:02:46;;;;;;;1.90;1.20;;;9.90;99.90;;;-141.84;66.56;19269.22;5072871;28;20701;-63
2022/12/29 05:05:14;;;;;;;2.30;1.40;;;9.90;99.90;;;-141.84;66.65;19230.59;5072963;28;20314;-63
2022/12/29 05:07:42;;;;;;;2.67;1.20;;;9.90;99.90;;;-141.84;67.58;19208.25;5072614;28;20581;-62
2022/12/29 05:10:11;;;;;;;2.93;1.50;;;9.90;99.90;;;-141.84;68.30;19194.03;5073077;28;20230;-61
2022/12/29 05:12:40;;;;;;;1.50;1.30;;;9.80;99.90;;;-141.84;68.16;19214.34;5073132;28;20208;-62
2022/12/29 05:15:11;;;;;;;1.97;1.27;;;9.70;99.90;;;-141.84;68.24;19218.41;5072617;28;20571;-62
2022/12/29 05:17:40;;;;;;;2.57;1.50;;;9.70;99.90;;;-141.84;69.28;19151.34;5072669;28;20224;-62
2022/12/29 05:20:09;;;;;;;2.40;1.47;;;9.60;99.90;;;-141.84;69.71;19149.31;5072586;28;20228;-64
2022/12/29 05:22:38;;;;;;;1.50;1.40;;;9.50;99.90;;;-141.84;70.08;19135.09;5072627;28;20223;-62
2022/12/29 05:25:07;;;;;;;1.33;1.23;;;9.50;99.90;;;-141.84;69.58;19159.47;5072379;28;20239;-62
2022/12/29 05:27:35;;;;;;;2.93;1.40;;;9.60;99.90;;;-141.84;69.80;19155.41;5072378;28;20204;-63
2022/12/29 05:30:05;;;;;;;2.67;1.60;;;9.60;99.90;;;-141.84;70.17;19147.28;5072351;28;20332;-62
2022/12/29 05:32:36;;;;;;;4.20;1.27;;;9.50;99.90;;;-141.84;70.65;19129.00;5072094;28;20228;-62
2022/12/29 05:35:05;;;;;;;1.73;1.53;;;9.40;99.90;;;-141.84;71.41;19153.38;5073017;28;20235;-62
2022/12/29 05:37:33;;;;;;;1.60;1.47;;;9.40;99.90;;;-141.84;70.97;19157.44;5072675;28;20220;-62
2022/12/29 05:40:01;;;;;;;1.63;1.37;;;9.40;99.90;;;-141.84;71.08;19112.75;5072974;28;20204;-63
2022/12/29 05:42:29;;;;;;;2.37;1.60;;;9.40;99.90;;;-141.84;71.43;19104.59;5072518;28;20205;-62
2022/12/29 05:44:57;;;;;;;2.03;1.40;;;9.40;99.90;;;-141.84;70.88;19151.34;5072274;28;20216;-63
2022/12/29 05:47:26;;;;;;;1.60;1.30;;;9.50;99.90;;;-141.84;71.31;19143.22;5072067;28;20228;-63
2022/12/29 05:49:55;;;;;;;2.23;1.40;;;9.40;99.90;;;-141.84;71.09;19112.75;5072386;28;20227;-62
2022/12/29 05:52:23;;;;;;;2.70;1.40;;;9.50;99.90;;;-141.84;70.88;19118.84;5072172;28;20239;-62
2022/12/29 05:54:52;;;;;;;2.03;1.40;;;9.50;99.90;;;-141.84;70.87;19149.31;5071952;28;20660;-62
2022/12/29 05:57:20;;;;;;;2.53;1.47;;;9.60;99.90;;;-141.84;71.50;19124.94;5072639;28;20201;-63
2022/12/29 05:59:48;;;;;;;2.40;1.47;;;9.50;99.90;;;-141.84;71.80;19100.53;5072285;28;20314;-61
2022/12/29 06:02:16;;;;;;;1.77;1.23;;;9.40;99.90;;;-141.84;71.52;19110.72;5072566;28;20226;-62
2022/12/29 06:04:45;;;;;;;1.40;1.30;;;9.40;99.90;;;-141.84;71.66;19110.72;5072257;28;20313;-64
2022/12/29 06:07:14;;;;;;;1.87;1.50;;;9.40;99.90;;;-141.84;71.51;19122.91;5071671;28;20221;-62
2022/12/29 06:09:42;;;;;;;1.70;1.60;;;9.40;99.90;;;-141.84;71.63;19118.84;5072013;28;20209;-63
2022/12/29 06:12:10;;;;;;;1.97;1.70;;;9.40;99.90;;;-141.84;72.23;19110.72;5071375;28;20224;-62
2022/12/29 06:14:38;;;;;;;1.63;1.50;;;9.40;99.90;;;-141.84;71.73;19104.59;5071079;28;20221;-62
2022/12/29 06:17:07;;;;;;;2.70;1.63;;;9.40;99.90;;;-141.84;70.11;19163.53;5071323;28;20228;-63
2022/12/29 06:19:35;;;;;;;4.30;1.67;;;9.70;99.90;;;-141.84;70.25;19163.53;5071384;28;20235;-62
2022/12/29 06:22:04;;;;;;;1.70;1.50;;;9.70;99.90;;;-141.84;69.99;19153.38;5071350;28;20208;-62
2022/12/29 06:24:34;;;;;;;1.70;1.60;;;9.70;99.90;;;-141.84;69.81;19194.03;5071968;28;20229;-62
2022/12/29 06:27:02;;;;;;;2.00;1.60;;;9.80;99.90;;;-141.84;69.49;19155.41;5071234;28;20220;-62
2022/12/29 06:29:30;;;;;;;2.80;1.40;;;9.80;99.90;;;-141.84;69.27;19167.59;5071306;28;20597;-63
2022/12/29 06:31:58;;;;;;;1.87;1.57;;;9.90;99.90;;;-141.84;69.24;19163.53;5071373;28;20311;-63
2022/12/29 06:34:26;;;;;;;2.67;1.40;;;9.90;99.90;;;-141.84;69.01;19167.59;5071044;28;20700;-62
2022/12/29 06:36:55;;;;;;;1.47;1.37;;;9.90;99.90;;;-141.84;68.41;19179.78;5070801;28;20608;-64
2022/12/29 06:39:23;;;;;;;2.33;1.50;;;10.00;99.90;;;-141.84;68.17;19208.25;5071667;28;20211;-62
2022/12/29 06:41:55;;;;;;;3.70;1.57;;;10.10;99.90;;;-141.84;68.73;19194.03;5071115;28;20232;-62
2022/12/29 06:44:23;;;;;;;1.47;1.33;;;10.00;99.90;;;-141.84;68.06;19218.41;5070735;28;20722;-64
2022/12/29 06:46:52;;;;;;;2.13;1.23;;;10.10;99.90;;;-141.84;68.31;19228.56;5071064;28;20704;-63
2022/12/29 06:49:20;;;;;;;1.60;1.30;;;10.10;99.90;;;-141.84;68.57;19179.78;5071031;28;20911;-63
2022/12/29 06:51:48;;;;;;;2.47;1.50;;;10.10;99.90;;;-141.84;68.52;19208.25;5070829;28;20224;-63
2022/12/29 06:54:16;;;;;;;1.80;1.40;;;10.10;99.90;;;-141.84;68.91;19179.78;5071771;28;20177;-63
2022/12/29 06:56:45;;;;;;;1.50;1.30;;;10.00;99.90;;;-141.84;69.60;19177.75;5070807;28;20730;-64
2022/12/29 06:59:14;;;;;;;1.63;1.43;;;10.00;99.90;;;-141.84;69.67;19179.78;5070607;28;20758;-62
2022/12/29 07:01:44;;;;;;;1.73;1.23;;;10.00;99.90;;;-141.84;69.60;19163.53;5071085;28;20255;-64
2022/12/29 07:04:12;;;;;;;1.43;1.30;;;10.00;99.90;;;-141.84;70.79;19116.81;5070847;28;20240;-63
2022/12/29 07:06:41;;;;;;;1.83;1.40;;;9.90;99.90;;;-141.84;70.86;19131.03;5071517;28;20226;-63
2022/12/29 07:09:10;;;;;;;2.90;1.20;;;9.80;99.90;;;-141.84;70.86;19171.66;5070807;28;20941;-63
2022/12/29 07:11:38;;;;;;;1.80;1.27;;;9.80;99.90;;;-141.84;71.14;19118.84;5071017;28;20230;-63
2022/12/29 07:14:06;;;;;;;1.87;1.77;;;9.70;99.90;;;-141.84;71.75;19126.97;5070436;28;20216;-63
2022/12/29 07:16:36;;;;;;;2.63;1.37;;;9.70;99.90;;;-141.84;71.64;19108.69;5071061;28;20220;-63
2022/12/29 07:19:05;;;;;;;1.50;1.40;;;9.60;99.90;;;-141.84;71.69;19129.00;5070380;28;20567;-63
2022/12/29 07:21:34;;;;;;;1.53;1.43;;;9.60;99.90;;;-141.84;72.60;19104.59;5071254;28;20204;-61
2022/12/29 07:24:02;;;;;;;1.90;1.40;;;9.50;99.90;;;-141.84;72.18;19108.69;5069024;28;20704;-63
2022/12/29 07:26:30;;;;;;;2.27;1.33;;;9.50;99.90;;;-141.84;72.08;19135.09;5070350;28;20239;-63
2022/12/29 07:29:03;;;;;;;2.67;1.63;;;9.60;99.90;;;-141.84;71.55;19116.81;5070112;28;20233;-63
2022/12/29 07:31:32;;;;;;;2.20;1.50;;;9.70;99.90;;;-141.84;71.72;19131.03;5070719;28;20220;-62
2022/12/29 07:34:02;;;;;;;3.27;1.60;;;9.60;99.90;;;-141.84;71.48;19137.13;5070486;28;20204;-62
2022/12/29 07:36:30;;;;;;;2.83;1.27;;;9.70;99.90;;;-141.84;71.36;19124.94;5070580;28;20209;-65
2022/12/29 07:39:02;;;;;;;3.17;1.50;;;9.80;99.90;;;-141.84;72.36;19104.59;5070259;28;20274;-63
2022/12/29 07:41:30;;;;;;;3.70;1.47;;;9.70;99.90;;;-141.84;72.76;19102.56;5070210;28;20247;-64
2022/12/29 07:43:58;;;;;;;2.20;1.47;;;9.60;99.90;;;-141.84;72.71;19104.59;5069887;28;20240;-63
2022/12/29 07:46:26;;;;;;;1.73;1.40;;;9.70;99.90;;;-141.84;72.20;19106.66;5070197;28;20224;-63
2022/12/29 07:49:15;;;;;;;2.47;1.50;;;9.70;99.90;;;-141.84;71.71;19120.88;5069990;28;20696;-63
2022/12/29 07:51:44;;;;;;;1.80;1.30;;;9.70;99.90;;;-141.84;72.20;19131.03;5074020;28;20235;-63
2022/12/29 07:54:12;;;;;;;2.07;1.47;;;9.70;99.90;;;-141.84;72.06;19159.47;5074523;28;20212;-62
2022/12/29 07:56:41;;;;;;;2.07;1.47;;;9.70;99.90;;;-141.84;71.46;19143.22;5074241;28;20232;-63
2022/12/29 07:59:09;;;;;;;3.33;1.47;;;9.80;99.90;;;-141.84;71.71;19147.28;5074056;28;20239;-62
2022/12/29 08:01:37;;;;;;;2.33;1.60;;;9.90;99.90;;;-141.84;71.83;19124.94;5074312;28;20228;-64
2022/12/29 08:04:05;;;;;;;2.87;1.60;;;9.90;99.90;;;-141.84;72.04;19147.28;5074117;28;20197;-65
2022/12/29 08:06:37;;;;;;;2.87;1.50;;;9.90;99.90;;;-141.84;71.85;19131.03;5074513;28;20315;-65
2022/12/29 08:09:05;;;;;;;1.83;1.50;;;9.90;99.90;;;-141.84;71.32;19147.28;5075096;28;20232;-63
2022/12/29 08:11:46;;;;;;;1.40;1.30;;;10.00;99.90;;;-141.84;70.93;19159.47;5074269;28;20723;-65
2022/12/29 08:14:14;;;;;;;1.80;1.43;;;10.10;99.90;;;-141.84;71.25;19167.59;5073437;28;20572;-64
2022/12/29 08:16:43;;;;;;;2.80;1.60;;;10.10;99.90;;;-141.84;70.73;19179.78;5073941;28;20220;-61
2022/12/29 08:19:12;;;;;;;1.97;1.30;;;10.20;99.90;;;-141.84;70.62;19169.63;5073640;28;20731;-61
2022/12/29 08:21:42;;;;;;;1.73;1.30;;;10.20;99.90;;;-141.84;70.70;19194.03;5073654;28;20192;-65
2022/12/29 08:24:10;;;;;;;1.87;1.37;;;10.30;99.90;;;-141.84;70.79;19169.63;5070460;28;20217;-64
2022/12/29 08:26:38;;;;;;;2.80;1.70;;;10.20;99.90;;;-141.84;70.83;19167.59;5073264;28;20229;-66
2022/12/29 08:29:06;;;;;;;2.93;1.43;;;10.20;99.90;;;-141.84;70.35;19175.72;5073218;28;20219;-68
2022/12/29 08:31:35;;;;;;;2.20;1.67;;;10.30;99.90;;;-141.84;69.83;19177.75;5073009;28;20216;-67
2022/12/29 08:34:04;;;;;;;3.13;1.60;;;10.40;99.90;;;-141.84;69.90;19177.75;5073237;28;20555;-68
2022/12/29 08:36:32;;;;;;;1.50;1.40;;;10.40;99.90;;;-141.84;69.53;19179.78;5073457;28;20197;-69
2022/12/29 08:39:01;;;;;;;3.10;1.50;;;10.50;99.90;;;-141.84;69.52;19202.16;5073444;28;20644;-63
2022/12/29 08:41:30;;;;;;;1.90;1.60;;;10.50;99.90;;;-141.84;69.57;19206.22;5073244;28;20650;-62
2022/12/29 08:43:58;;;;;;;2.00;1.40;;;10.50;99.90;;;-141.84;69.25;19224.50;5073091;28;20239;-63
2022/12/29 08:46:26;;;;;;;1.50;1.40;;;10.50;99.90;;;-141.84;69.05;19210.28;5073198;28;20586;-64
2022/12/29 08:48:55;;;;;;;3.40;1.57;;;10.50;99.90;;;-141.84;68.91;19194.03;5073463;28;20212;-63
2022/12/29 08:51:23;;;;;;;2.10;1.90;;;10.60;99.90;;;-141.84;68.75;19228.56;5073161;28;20208;-63
2022/12/29 08:53:53;;;;;;;2.10;1.33;;;10.60;99.90;;;-141.84;68.22;19206.22;5073191;28;20540;-64
2022/12/29 08:56:23;;;;;;;2.20;1.40;;;10.70;99.90;;;-141.84;68.24;19240.75;5072028;28;20255;-62
2022/12/29 08:58:51;;;;;;;1.67;1.17;;;10.70;99.90;;;-141.84;67.92;19238.72;5073058;28;20259;-62
2022/12/29 09:01:20;;;;;;;2.43;1.37;;;10.80;99.90;;;-141.84;68.33;19240.75;5072068;28;20962;-64
2022/12/29 09:03:50;;;;;;;2.00;1.27;;;10.80;99.90;;;-141.84;67.87;19265.13;5072749;28;20805;-66
2022/12/29 09:06:38;;;;;;;1.57;1.40;;;10.80;99.90;;;-141.84;67.99;19234.66;5072771;28;20615;-67
2022/12/29 09:09:08;;;;;;;2.27;1.50;;;10.90;99.90;;;-141.84;67.59;19283.44;5072617;28;20764;-62
2022/12/29 09:11:37;;;;;;;1.83;1.20;;;11.00;99.90;;;-141.84;67.97;19250.91;5072625;28;20220;-62
2022/12/29 09:14:05;;;;;;;1.57;1.40;;;10.90;99.90;;;-141.84;67.59;19242.78;5072643;28;20229;-62
2022/12/29 09:16:35;;;;;;;2.50;1.70;;;11.00;99.90;;;-141.84;67.80;19248.88;5072795;28;20216;-62
2022/12/29 09:19:04;;;;;;;1.70;1.37;;;11.00;99.90;;;-141.84;67.68;19285.47;5072723;28;20200;-60
2022/12/29 09:21:32;;;;;;;3.20;1.30;;;11.00;99.90;;;-141.84;67.68;19248.88;5073140;28;20208;-65
2022/12/29 09:24:00;;;;;;;1.83;1.20;;;11.10;99.90;;;-141.84;67.33;19289.53;5071415;28;20664;-63
2022/12/29 09:26:28;;;;;;;1.70;1.33;;;11.20;99.90;;;-141.84;66.15;19315.94;5070908;28;20212;-64
2022/12/29 09:28:58;;;;;;;1.57;1.47;;;11.30;99.90;;;-141.84;66.00;19334.22;5072367;28;20232;-63
2022/12/29 09:31:26;;;;;;;2.43;1.40;;;11.40;99.90;;;-141.84;65.79;19328.13;5072217;28;20224;-68
2022/12/29 09:33:54;;;;;;;1.90;1.43;;;11.50;99.90;;;-141.84;65.50;19366.75;5072338;28;20239;-62
2022/12/29 09:36:23;;;;;;;2.30;1.33;;;11.50;99.90;;;-141.84;64.74;19346.44;5072132;28;20208;-62
2022/12/29 09:38:51;;;;;;;2.03;1.50;;;11.70;99.90;;;-141.84;65.40;19317.97;5072030;28;20252;-63
2022/12/29 09:41:30;;;;;;;2.80;1.30;;;11.70;99.90;;;-141.84;64.82;19340.31;5072024;28;20282;-63
2022/12/29 09:44:17;;;;;;;1.87;1.30;;;11.70;99.90;;;-141.84;64.78;19366.75;5072004;28;20232;-63
2022/12/29 09:46:51;;;;;;;2.25;1.30;;;11.80;99.90;;;-141.84;64.53;19372.84;5051568;28;20736;-63
2022/12/29 09:49:29;;;;;;;2.07;1.33;;;11.80;99.90;;;-141.84;64.46;19419.59;5054334;28;20221;-63
2022/12/29 09:52:07;;;;;;;2.13;1.40;;;11.90;99.90;;;-141.84;63.90;19378.94;5069997;28;20327;-63
2022/12/29 09:54:53;;;;;;;1.77;1.48;;;12.00;99.90;;;-141.84;63.35;19435.84;5072576;28;20200;-63
2022/12/29 09:57:37;;;;;;;2.23;1.13;;;12.10;99.90;;;-141.84;62.68;19441.94;5071917;28;20243;-64
2022/12/29 10:00:15;;;;;;;1.92;1.42;;;12.20;99.90;;;-141.84;62.20;19460.22;5071880;28;20254;-54
2022/12/29 10:02:49;;;;;;;2.13;1.20;;;12.30;99.90;;;-141.84;62.57;19448.03;5070902;28;20708;-57
2022/12/29 10:05:33;;;;;;;2.30;1.40;;;12.40;99.90;;;-141.84;62.00;19472.41;5071786;28;20715;-54
2022/12/29 10:08:23;;;;;;;2.27;1.43;;;12.40;99.90;;;-141.84;61.36;19470.38;5051927;28;20221;-56
2022/12/29 10:10:58;;;;;;;1.27;1.17;;;12.50;99.90;;;-141.84;61.38;19472.41;5051918;28;20225;-56
2022/12/29 10:13:49;;;;;;;2.90;1.33;;;12.60;99.90;;;-141.84;61.79;19486.66;5051663;28;20228;-56
2022/12/29 10:16:32;;;;;;;2.33;1.30;;;12.50;99.90;;;-141.84;61.88;19504.94;5051160;28;20226;-54
2022/12/29 10:19:24;;;;;;;3.60;1.60;;;12.40;99.90;;;-141.84;61.92;19504.94;5052095;28;20193;-55
2022/12/29 10:22:19;;;;;;;2.00;1.30;;;12.40;99.90;;;-141.84;62.84;19468.34;5051583;28;20211;-56
2022/12/29 10:24:52;;;;;;;2.63;1.50;;;12.30;99.90;;;-141.84;62.77;19439.91;5071808;28;20520;-53
2022/12/29 10:27:20;;;;;;;3.20;1.67;;;12.20;99.90;;;-141.84;63.07;19407.38;5071759;28;20644;-56
2022/12/29 10:29:54;;;;;;;2.93;1.40;;;12.00;99.90;;;-141.84;63.33;19431.78;5071453;28;20225;-56
2022/12/29 10:32:34;;;;;;;1.93;1.50;;;12.00;99.90;;;-141.84;63.63;19407.38;5071009;28;20229;-55
2022/12/29 10:35:15;;;;;;;1.60;1.20;;;11.90;99.90;;;-141.84;63.80;19395.19;5071279;28;20232;-55
2022/12/29 10:37:52;;;;;;;2.40;1.10;;;11.80;99.90;;;-141.84;63.76;19399.25;5069989;28;20731;-56
2022/12/29 10:40:28;;;;;;;4.67;1.50;;;11.80;99.90;;;-141.84;63.91;19391.13;5071306;28;20221;-55
2022/12/29 10:42:59;;;;;;;3.00;1.50;;;11.80;99.90;;;-141.84;63.18;19411.44;5071031;28;20192;-54
2022/12/29 10:45:32;;;;;;;1.83;1.30;;;11.90;99.90;;;-141.84;63.04;19480.53;5071659;28;20627;-57
2022/12/29 10:48:10;;;;;;;1.70;1.23;;;11.90;99.90;;;-141.84;62.54;19452.09;5070513;28;20283;-55
2022/12/29 10:50:42;;;;;;;1.60;1.27;;;12.00;99.90;;;-141.84;62.00;19460.22;5070537;28;20225;-55
2022/12/29 10:53:22;;;;;;;1.47;1.37;;;12.20;99.90;;;-141.84;61.76;19492.75;5070491;28;20234;-53
2022/12/29 10:55:52;;;;;;;1.67;1.20;;;12.30;99.90;;;-141.84;61.46;19500.88;5071122;28;20224;-57
2022/12/29 10:58:22;;;;;;;1.42;1.20;;;12.30;99.90;;;-141.84;61.52;19506.97;5070950;28;20224;-52
2022/12/29 11:00:55;;;;;;;3.38;1.40;;;12.40;99.90;;;-141.84;61.50;19482.56;5070975;28;20185;-55
2022/12/29 11:03:50;;;;;;;1.33;1.20;;;12.30;99.90;;;-141.84;61.45;19531.34;5071584;28;20258;-55
2022/12/29 11:06:25;;;;;;;1.60;1.50;;;12.40;99.90;;;-141.84;61.19;19545.56;5061078;28;20225;-55
2022/12/29 11:08:59;;;;;;;2.25;1.15;;;12.50;99.90;;;-141.84;61.28;19574.03;5070446;28;20706;-55
2022/12/29 11:11:34;;;;;;;3.00;1.40;;;12.50;99.90;;;-141.84;61.05;19588.25;5070719;28;20239;-56